Time;durP1;ratioP1;P1;durP2;ratioP2;P2;SDS_P1;SDS_P2;PMS_P1;PMS_P2;Temp;Humidity;BMP_temperature;BMP_pressure;BME280_temperature;BME280_humidity;BME280_pressure;Samples;Min_cycle;Max_cycle;Signal;HPM_P1;HPM_P2
2022/10/22 00:00:46;;;;;;;63.53;60.33;;;;;;;11.69;100.00;100818.38;5058177;28;20809;-76
2022/10/22 00:03:11;;;;;;;57.38;54.75;;;;;;;11.60;100.00;100803.41;5056301;28;20028;-76
2022/10/22 00:05:37;;;;;;;61.58;59.03;;;;;;;11.74;100.00;100826.63;5056073;28;20029;-76
2022/10/22 00:08:02;;;;;;;57.65;55.20;;;;;;;11.74;100.00;100833.75;5057694;28;20410;-76
2022/10/22 00:10:28;;;;;;;55.42;52.80;;;;;;;11.70;100.00;100827.13;5041030;28;20035;-76
2022/10/22 00:12:53;;;;;;;65.25;62.58;;;;;;;11.61;100.00;100814.84;5058733;28;20048;-75
2022/10/22 00:15:19;;;;;;;57.50;55.05;;;;;;;11.68;100.00;100826.44;5040267;28;20071;-76
2022/10/22 00:17:44;;;;;;;60.50;57.97;;;;;;;11.66;100.00;100828.41;5056134;28;20037;-75
2022/10/22 00:20:10;;;;;;;61.42;58.95;;;;;;;11.62;100.00;100824.41;5058249;28;20396;-75
2022/10/22 00:22:35;;;;;;;58.28;55.92;;;;;;;11.48;100.00;100816.09;5056080;28;20112;-75
2022/10/22 00:25:00;;;;;;;62.72;60.13;;;;;;;11.65;100.00;100842.59;5057066;28;20071;-75
2022/10/22 00:27:26;;;;;;;67.40;64.57;;;;;;;11.63;100.00;100845.41;5055099;28;20025;-75
2022/10/22 00:29:51;;;;;;;60.15;57.22;;;;;;;11.62;100.00;100845.56;5057195;28;20059;-76
2022/10/22 00:32:17;;;;;;;62.33;59.55;;;;;;;11.61;100.00;100857.97;5057191;28;20115;-76
2022/10/22 00:34:42;;;;;;;62.55;59.80;;;;;;;11.59;100.00;100853.81;5057411;28;20056;-76
2022/10/22 00:37:07;;;;;;;57.00;54.35;;;;;;;11.57;100.00;100855.78;5056485;28;20029;-75
2022/10/22 00:39:33;;;;;;;58.58;55.83;;;;;;;11.56;100.00;100860.22;5060644;28;20043;-76
2022/10/22 00:41:58;;;;;;;60.03;57.58;;;;;;;11.53;100.00;100850.81;5061516;28;20044;-76
2022/10/22 00:44:58;;;;;;;59.80;57.15;;;;;;;11.49;100.00;100860.03;5062323;28;20063;-76
2022/10/22 00:47:27;;;;;;;57.55;55.10;;;;;;;11.47;100.00;100862.00;5060650;28;20556;-76
2022/10/22 00:49:54;;;;;;;62.65;60.15;;;;;;;11.34;100.00;100845.72;5060089;28;20043;-76
2022/10/22 00:52:21;;;;;;;67.43;64.57;;;;;;;11.42;100.00;100869.56;5061598;28;20873;-75
2022/10/22 00:54:47;;;;;;;63.78;60.60;;;;;;;11.40;100.00;100870.72;5060031;28;20107;-76
2022/10/22 00:57:14;;;;;;;64.32;61.72;;;;;;;11.39;100.00;100869.88;5060761;28;20041;-76
2022/10/22 00:59:40;;;;;;;64.47;61.88;;;;;;;11.39;100.00;100871.69;5061807;28;20024;-75
2022/10/22 01:02:05;;;;;;;62.28;59.38;;;;;;;11.39;100.00;100869.88;5061936;28;20028;-76
2022/10/22 01:04:30;;;;;;;65.88;63.22;;;;;;;11.38;100.00;100867.38;5061521;28;20025;-75
2022/10/22 01:06:56;;;;;;;57.58;55.17;;;;;;;11.38;100.00;100867.38;5043707;28;20186;-76
2022/10/22 01:09:35;;;;;;;63.80;60.90;;;;;;;11.36;100.00;100875.47;5060368;28;20028;-76
2022/10/22 01:12:13;;;;;;;67.03;64.20;;;;;;;11.33;100.00;100873.97;5060700;28;20539;-76
2022/10/22 01:14:57;;;;;;;64.50;61.97;;;;;;;11.27;100.00;100879.84;5067737;28;20040;-76
2022/10/22 01:17:32;;;;;;;63.10;60.67;;;;;;;11.23;100.00;100880.31;5060607;28;20036;-76
2022/10/22 01:20:25;;;;;;;66.72;64.07;;;;;;;11.20;100.00;100878.00;5060719;28;20075;-76
2022/10/22 01:23:09;;;;;;;56.40;53.92;;;;;;;11.19;100.00;100878.97;5067740;28;20063;-76
2022/10/22 01:25:45;;;;;;;59.63;57.03;;;;;;;11.17;100.00;100878.28;5067518;28;20032;-76
2022/10/22 01:28:38;;;;;;;56.78;54.30;;;;;;;11.12;100.00;100881.38;5059537;28;20047;-76
2022/10/22 01:31:06;;;;;;;59.65;57.20;;;;;;;11.12;100.00;100879.56;5061125;28;20024;-76
2022/10/22 01:33:32;;;;;;;65.93;63.13;;;;;;;11.11;100.00;100877.94;5060330;28;20020;-76
2022/10/22 01:35:58;;;;;;;65.85;62.45;;;;;;;11.16;100.00;100874.00;5043180;28;20052;-76
2022/10/22 01:38:25;;;;;;;61.15;58.72;;;;;;;11.17;100.00;100883.56;5060075;28;20025;-76
2022/10/22 01:40:50;;;;;;;59.50;57.13;;;;;;;11.17;100.00;100876.50;5044319;28;20735;-76
2022/10/22 01:43:16;;;;;;;67.25;64.28;;;;;;;11.16;100.00;100884.56;5066937;28;20033;-76
2022/10/22 01:45:46;;;;;;;67.60;64.80;;;;;;;11.14;100.00;100876.78;5059460;28;20035;-75
2022/10/22 01:48:34;;;;;;;61.28;58.70;;;;;;;11.14;100.00;100873.31;5059145;28;20032;-75
2022/10/22 01:51:29;;;;;;;57.22;54.95;;;;;;;11.04;100.00;100865.47;5060013;28;20380;-75
2022/10/22 01:54:40;;;;;;;58.30;55.78;;;;;;;11.09;100.00;100879.88;5059815;28;20505;-75
2022/10/22 01:57:30;;;;;;;56.58;54.25;;;;;;;11.08;100.00;100883.53;5066144;28;20028;-76
2022/10/22 02:00:05;;;;;;;58.72;56.08;;;;;;;11.04;100.00;100870.75;5059080;28;20048;-75
2022/10/22 02:02:42;;;;;;;56.50;54.22;;;;;;;11.07;100.00;100873.09;5060500;28;20052;-75
2022/10/22 02:05:22;;;;;;;58.38;56.03;;;;;;;10.99;100.00;100863.28;5060483;28;20071;-75
2022/10/22 02:07:54;;;;;;;55.95;52.50;;;;;;;11.15;100.00;100882.88;5057851;28;20540;-76
2022/10/22 02:10:22;;;;;;;56.05;53.80;;;;;;;11.04;100.00;100861.03;5059313;28;20029;-76
2022/10/22 02:12:51;;;;;;;58.78;56.42;;;;;;;11.15;100.00;100880.25;5074757;28;20029;-76
2022/10/22 02:15:19;;;;;;;57.80;55.42;;;;;;;11.07;100.00;100860.72;5059268;28;20090;-76
2022/10/22 02:17:45;;;;;;;57.80;55.55;;;;;;;11.20;100.00;100880.63;5059508;28;20033;-76
2022/10/22 02:20:18;;;;;;;61.05;58.60;;;;;;;11.22;100.00;100883.97;5060586;28;20024;-76
2022/10/22 02:22:44;;;;;;;65.30;62.50;;;;;;;11.20;100.00;100875.34;5058867;28;20041;-76
2022/10/22 02:25:10;;;;;;;64.38;61.17;;;;;;;11.16;100.00;100874.00;5041960;28;20071;-77
2022/10/22 02:28:11;;;;;;;61.75;59.03;;;;;;;11.20;100.00;100873.53;5058347;28;20472;-76
2022/10/22 02:30:39;;;;;;;56.95;54.40;;;;;;;11.20;100.00;100875.34;5056078;28;20041;-76
2022/10/22 02:33:14;;;;;;;56.05;53.80;;;;;;;11.22;100.00;100876.03;5059975;28;20389;-76
2022/10/22 02:35:40;;;;;;;62.45;59.83;;;;;;;11.22;100.00;100874.22;5059110;28;20426;-76
2022/10/22 02:38:07;;;;;;;59.40;57.05;;;;;;;11.23;100.00;100872.41;5059093;28;20029;-76
2022/10/22 02:40:32;;;;;;;59.05;56.67;;;;;;;11.16;100.00;100858.16;5059315;28;20036;-76
2022/10/22 02:42:58;;;;;;;60.88;58.40;;;;;;;11.17;100.00;100859.78;5042134;28;20025;-76
2022/10/22 02:45:24;;;;;;;64.45;61.55;;;;;;;11.20;100.00;100870.06;5058971;28;20095;-76
2022/10/22 02:47:49;;;;;;;60.92;58.53;;;;;;;11.18;100.00;100870.22;5059791;28;20033;-76
2022/10/22 02:50:15;;;;;;;62.88;60.33;;;;;;;11.11;100.00;100862.06;5057044;28;20503;-76
2022/10/22 02:52:40;;;;;;;57.35;55.08;;;;;;;11.11;100.00;100864.72;5058898;28;20025;-76
2022/10/22 02:55:07;;;;;;;61.97;59.25;;;;;;;11.20;100.00;100870.06;5057158;28;20040;-76
2022/10/22 02:57:32;;;;;;;66.15;63.20;;;;;;;11.23;100.00;100864.47;5057812;28;20127;-76
2022/10/22 02:59:58;;;;;;;57.60;55.30;;;;;;;11.26;100.00;100861.53;5057536;28;20696;-75
2022/10/22 03:02:23;;;;;;;59.05;56.42;;;;;;;11.27;100.00;100860.53;5058114;28;20451;-75
2022/10/22 03:04:48;;;;;;;58.63;55.85;;;;;;;11.29;100.00;100863.88;5065582;28;20032;-75
2022/10/22 03:07:14;;;;;;;59.83;56.40;;;;;;;11.27;100.00;100868.47;5058046;28;20053;-76
2022/10/22 03:09:39;;;;;;;64.75;62.17;;;;;;;11.26;100.00;100864.19;5056665;28;20033;-76
2022/10/22 03:12:05;;;;;;;63.33;59.75;;;;;;;11.11;100.00;100845.41;5060877;28;20636;-76
2022/10/22 03:14:30;;;;;;;58.38;55.88;;;;;;;11.22;100.00;100866.28;5058198;28;20032;-76
2022/10/22 03:16:55;;;;;;;57.42;55.10;;;;;;;11.23;100.00;100869.75;5058888;28;20032;-76
2022/10/22 03:19:21;;;;;;;58.58;56.05;;;;;;;11.21;100.00;100866.44;5057241;28;20029;-76
2022/10/22 03:22:01;;;;;;;62.55;59.95;;;;;;;11.08;100.00;100870.31;5073576;28;20496;-76
2022/10/22 03:24:37;;;;;;;55.78;53.47;;;;;;;11.14;100.00;100882.06;5058660;28;20053;-76
2022/10/22 03:27:02;;;;;;;60.33;57.58;;;;;;;11.09;100.00;100887.81;5058909;28;20056;-76
2022/10/22 03:29:30;;;;;;;62.47;59.70;;;;;;;11.03;100.00;100880.50;5058094;28;20399;-76
2022/10/22 03:31:55;;;;;;;58.80;56.40;;;;;;;10.91;100.00;100865.88;5057904;28;20392;-76
2022/10/22 03:34:21;;;;;;;60.47;57.72;;;;;;;11.01;100.00;100868.44;5056872;28;20038;-76
2022/10/22 03:36:47;;;;;;;56.70;54.35;;;;;;;11.00;100.00;100872.88;5058234;28;20028;-76
2022/10/22 03:39:14;;;;;;;50.22;47.78;;;;;;;11.01;100.00;100877.16;5063229;28;20036;-76
2022/10/22 03:41:40;;;;;;;58.65;56.17;;;;;;;11.00;100.00;100872.88;5058466;28;20029;-76
2022/10/22 03:44:06;;;;;;;59.80;57.10;;;;;;;10.94;100.00;100865.56;5056149;28;20025;-76
2022/10/22 03:46:31;;;;;;;65.57;62.65;;;;;;;10.91;100.00;100863.25;5040866;28;20105;-76
2022/10/22 03:48:57;;;;;;;57.97;55.55;;;;;;;10.66;100.00;100836.59;5058790;28;20037;-76
2022/10/22 03:51:25;;;;;;;54.65;52.00;;;;;;;10.94;100.00;100883.22;5057848;28;20092;-76
2022/10/22 03:53:51;;;;;;;51.63;49.30;;;;;;;10.93;100.00;100885.03;5058102;28;20055;-76
2022/10/22 03:56:16;;;;;;;56.95;54.38;;;;;;;10.91;100.00;100879.09;5058909;28;20096;-76
2022/10/22 03:58:41;;;;;;;63.08;60.38;;;;;;;10.91;100.00;100876.44;5056810;28;20063;-76
2022/10/22 04:01:09;;;;;;;56.10;53.50;;;;;;;10.91;100.00;100876.44;5057899;28;20078;-76
2022/10/22 04:03:35;;;;;;;60.47;57.92;;;;;;;10.93;100.00;100889.47;5058027;28;20021;-76
2022/10/22 04:06:06;;;;;;;57.05;54.53;;;;;;;10.88;100.00;100882.00;5058895;28;20087;-77
2022/10/22 04:08:32;;;;;;;59.53;56.75;;;;;;;10.90;100.00;100891.44;5065293;28;20543;-76
2022/10/22 04:10:58;;;;;;;57.95;55.60;;;;;;;10.90;100.00;100893.25;5055474;28;20170;-76
2022/10/22 04:13:23;;;;;;;66.07;63.20;;;;;;;10.89;100.00;100888.97;5060805;28;20032;-76
2022/10/22 04:15:50;;;;;;;64.10;61.42;;;;;;;10.76;100.00;100876.13;5063302;28;20511;-76
2022/10/22 04:18:19;;;;;;;56.05;53.72;;;;;;;10.89;100.00;100894.25;5061045;28;20549;-76
2022/10/22 04:20:45;;;;;;;56.03;53.08;;;;;;;10.77;100.00;100874.31;5061692;28;20032;-76
2022/10/22 04:23:11;;;;;;;62.28;59.28;;;;;;;10.87;100.00;100897.03;5061502;28;20056;-76
2022/10/22 04:25:36;;;;;;;55.45;53.00;;;;;;;10.87;100.00;100901.50;5061453;28;20953;-76
2022/10/22 04:28:02;;;;;;;56.38;53.65;;;;;;;10.87;100.00;100901.50;5061985;28;20086;-76
2022/10/22 04:30:27;;;;;;;59.28;56.55;;;;;;;10.85;100.00;100898.16;5060758;28;20048;-76
2022/10/22 04:32:52;;;;;;;57.65;55.00;;;;;;;10.85;100.00;100900.81;5046760;28;20029;-76
2022/10/22 04:35:18;;;;;;;62.65;60.03;;;;;;;10.82;100.00;100901.09;5061818;28;20025;-76
2022/10/22 04:37:43;;;;;;;53.33;51.05;;;;;;;10.79;100.00;100904.03;5063556;28;20047;-76
2022/10/22 04:40:09;;;;;;;55.15;52.70;;;;;;;10.77;100.00;100901.53;5061173;28;20037;-76
2022/10/22 04:42:35;;;;;;;57.63;55.13;;;;;;;10.66;100.00;100892.03;5061810;28;20089;-76
2022/10/22 04:45:00;;;;;;;56.47;54.15;;;;;;;10.73;100.00;100912.56;5059978;28;20111;-77
2022/10/22 04:47:25;;;;;;;59.75;56.92;;;;;;;10.75;100.00;100902.69;5069153;28;20040;-76
2022/10/22 04:49:51;;;;;;;55.13;52.67;;;;;;;10.72;100.00;100908.28;5060897;28;20044;-76
2022/10/22 04:52:16;;;;;;;58.85;56.58;;;;;;;10.74;100.00;100901.03;5061092;28;20503;-76
2022/10/22 04:54:41;;;;;;;57.13;54.47;;;;;;;10.60;100.00;100879.41;5060324;28;20664;-76
2022/10/22 04:57:07;;;;;;;53.95;51.65;;;;;;;10.70;100.00;100895.22;5067884;28;20032;-76
2022/10/22 04:59:32;;;;;;;61.35;58.72;;;;;;;10.68;100.00;100898.00;5062885;28;20024;-75
2022/10/22 05:01:57;;;;;;;55.35;53.13;;;;;;;10.69;100.00;100906.72;5061254;28;20037;-76
2022/10/22 05:04:23;;;;;;;54.78;52.13;;;;;;;10.67;100.00;100906.91;5060394;28;20489;-76
2022/10/22 05:06:48;;;;;;;57.08;54.78;;;;;;;10.65;100.00;100908.84;5061202;28;20029;-77
2022/10/22 05:09:16;;;;;;;60.15;57.60;;;;;;;10.53;100.00;100894.19;5059328;28;20388;-76
2022/10/22 05:11:47;;;;;;;60.92;58.13;;;;;;;10.65;100.00;100913.31;5061751;28;20029;-76
2022/10/22 05:14:13;;;;;;;58.70;56.13;;;;;;;10.55;100.00;100896.69;5067676;28;20024;-77
2022/10/22 05:16:39;;;;;;;58.55;55.92;;;;;;;10.62;100.00;100917.06;5060717;28;20028;-76
2022/10/22 05:19:05;;;;;;;53.85;51.42;;;;;;;10.60;100.00;100905.00;5060539;28;20383;-77
2022/10/22 05:21:30;;;;;;;55.85;53.58;;;;;;;10.55;100.00;100902.81;5059052;28;20043;-77
2022/10/22 05:23:58;;;;;;;52.40;50.05;;;;;;;10.55;100.00;100901.97;5058133;28;20033;-76
2022/10/22 05:26:25;;;;;;;61.22;58.60;;;;;;;10.63;100.00;100916.09;5058924;28;20044;-76
2022/10/22 05:28:51;;;;;;;63.50;60.83;;;;;;;10.53;100.00;100904.75;5059002;28;20477;-76
2022/10/22 05:31:17;;;;;;;58.30;55.58;;;;;;;10.61;100.00;100918.06;5042270;28;20128;-76
2022/10/22 05:33:43;;;;;;;60.33;57.70;;;;;;;10.61;100.00;100918.06;5058168;28;20421;-76
2022/10/22 05:36:12;;;;;;;54.35;51.88;;;;;;;10.60;100.00;100916.38;5059393;28;20615;-76
2022/10/22 05:38:38;;;;;;;55.45;52.85;;;;;;;10.48;100.00;100892.00;5059190;28;20027;-76
2022/10/22 05:41:12;;;;;;;58.50;55.83;;;;;;;10.59;100.00;100912.09;5057484;28;20040;-76
2022/10/22 05:43:38;;;;;;;57.47;54.97;;;;;;;10.61;100.00;100904.84;5058747;28;20051;-76
2022/10/22 05:46:06;;;;;;;57.47;55.03;;;;;;;10.63;100.00;100916.09;5058605;28;20526;-76
2022/10/22 05:48:32;;;;;;;52.47;50.22;;;;;;;10.62;100.00;100914.41;5059247;28;20405;-76
2022/10/22 05:51:03;;;;;;;54.10;51.33;;;;;;;10.58;100.00;100901.66;5061116;28;20037;-77
2022/10/22 05:53:29;;;;;;;57.95;54.28;;;;;;;10.66;100.00;100912.31;5059648;28;20481;-76
2022/10/22 05:55:54;;;;;;;56.50;54.20;;;;;;;10.63;100.00;100916.09;5058728;28;20036;-77
2022/10/22 05:58:20;;;;;;;60.10;57.22;;;;;;;10.66;100.00;100913.16;5064967;28;20451;-77
2022/10/22 06:00:45;;;;;;;54.45;51.92;;;;;;;10.63;100.00;100916.09;5041304;28;20024;-76
2022/10/22 06:03:11;;;;;;;60.90;58.28;;;;;;;10.63;100.00;100925.81;5057154;28;22339;-77
2022/10/22 06:05:36;;;;;;;55.53;53.13;;;;;;;10.62;100.00;100926.78;5065013;28;20032;-76
2022/10/22 06:08:03;;;;;;;58.28;55.72;;;;;;;10.60;100.00;100921.66;5057343;28;20534;-77
2022/10/22 06:10:29;;;;;;;61.35;58.17;;;;;;;10.53;100.00;100907.41;5056856;28;20025;-76
2022/10/22 06:12:54;;;;;;;58.97;56.03;;;;;;;10.63;100.00;100926.66;5058005;28;20033;-76
2022/10/22 06:15:19;;;;;;;56.33;53.92;;;;;;;10.64;100.00;100925.66;5055838;28;20053;-76
2022/10/22 06:17:46;;;;;;;59.17;56.35;;;;;;;10.64;100.00;100927.47;5056479;28;20043;-76
2022/10/22 06:20:11;;;;;;;55.78;53.40;;;;;;;10.65;100.00;100929.16;5057913;28;20087;-76
2022/10/22 06:22:37;;;;;;;63.53;60.70;;;;;;;10.56;100.00;100922.94;5058522;28;20067;-76
2022/10/22 06:25:03;;;;;;;54.33;51.95;;;;;;;10.68;100.00;100924.38;5056631;28;20033;-77
2022/10/22 06:27:29;;;;;;;59.72;56.55;;;;;;;10.68;100.00;100929.66;5057703;28;20063;-76
2022/10/22 06:29:54;;;;;;;59.42;56.53;;;;;;;10.68;100.00;100934.94;5058641;28;20471;-76
2022/10/22 06:32:20;;;;;;;56.60;53.38;;;;;;;10.68;100.00;100934.94;5041539;28;20106;-76
2022/10/22 06:34:47;;;;;;;53.75;51.17;;;;;;;10.73;100.00;100931.84;5058459;28;20025;-76
2022/10/22 06:37:14;;;;;;;50.83;47.95;;;;;;;10.77;100.00;100948.25;5058774;28;20039;-76
2022/10/22 06:39:39;;;;;;;55.30;52.85;;;;;;;10.79;100.00;100941.81;5057852;28;20025;-77
2022/10/22 06:42:05;;;;;;;55.90;53.47;;;;;;;10.83;100.00;100947.66;5057118;28;20036;-76
2022/10/22 06:44:30;;;;;;;55.33;53.08;;;;;;;10.86;100.00;100942.88;5057816;28;20048;-77
2022/10/22 06:46:55;;;;;;;56.75;54.20;;;;;;;10.87;100.00;100941.09;5056085;28;20120;-77
2022/10/22 06:49:21;;;;;;;60.35;57.15;;;;;;;10.90;100.00;100949.53;5040207;28;20033;-77
2022/10/22 06:51:52;;;;;;;52.83;50.53;;;;;;;10.93;100.00;100945.78;5056703;28;20469;-77
2022/10/22 06:54:17;;;;;;;59.55;56.83;;;;;;;10.94;100.00;100949.25;5057053;28;20021;-76
2022/10/22 06:56:43;;;;;;;54.50;51.92;;;;;;;11.04;100.00;100950.84;5055160;28;20059;-76
2022/10/22 06:59:08;;;;;;;55.17;52.15;;;;;;;11.10;100.00;100957.31;5056119;28;20036;-76
2022/10/22 07:01:34;;;;;;;56.10;53.53;;;;;;;11.19;100.00;100958.22;5055271;28;20492;-78
2022/10/22 07:04:01;;;;;;;48.85;46.65;;;;;;;11.14;100.00;100942.00;5061886;28;20024;-77
2022/10/22 07:06:28;;;;;;;56.58;54.08;;;;;;;11.28;100.00;100965.25;5054541;28;20400;-77
2022/10/22 07:08:55;;;;;;;55.70;53.00;;;;;;;11.37;100.00;100966.97;5055644;28;20136;-77
2022/10/22 07:11:23;;;;;;;53.90;51.63;;;;;;;11.38;100.00;100950.13;5057595;28;20108;-76
2022/10/22 07:13:48;;;;;;;54.33;51.63;;;;;;;11.58;100.00;100969.28;5052277;28;20021;-77
2022/10/22 07:16:15;;;;;;;57.80;55.13;;;;;;;11.69;100.00;100977.00;5057248;28;20039;-77
2022/10/22 07:18:41;;;;;;;59.20;56.63;;;;;;;11.85;100.00;100980.72;5056819;28;20500;-77
2022/10/22 07:21:08;;;;;;;56.25;53.85;;;;;;;12.01;100.00;100990.63;5056437;28;20027;-77
2022/10/22 07:23:33;;;;;;;59.22;56.10;;;;;;;12.12;100.00;100977.94;5055645;28;20451;-76
2022/10/22 07:26:01;;;;;;;57.25;54.67;;;;;;;12.24;100.00;100986.44;5023926;28;20020;-77
2022/10/22 07:28:27;;;;;;;50.30;47.90;;;;;;;12.29;100.00;100994.75;5055952;28;20040;-76
2022/10/22 07:30:53;;;;;;;56.35;53.63;;;;;;;12.50;100.00;100999.66;5058019;28;20036;-78
2022/10/22 07:33:18;;;;;;;52.47;50.03;;;;;;;12.60;100.00;101002.16;5054338;28;20029;-77
2022/10/22 07:35:43;;;;;;;52.95;50.63;;;;;;;12.63;100.00;100983.31;5057862;28;20739;-77
2022/10/22 07:38:09;;;;;;;49.63;47.05;;;;;;;12.84;100.00;101008.53;5039832;28;20046;-77
2022/10/22 07:40:35;;;;;;;54.97;52.53;;;;;;;13.01;100.00;100993.53;5063601;28;20032;-77
2022/10/22 07:43:00;;;;;;;51.20;48.95;;;;;;;13.07;100.00;100984.94;5054979;28;20041;-76
2022/10/22 07:45:26;;;;;;;59.15;55.97;;;;;;;13.17;100.00;100999.69;5058163;28;20433;-76
2022/10/22 07:47:52;;;;;;;55.35;52.95;;;;;;;13.08;100.00;100990.03;5059733;28;20063;-76
2022/10/22 07:50:17;;;;;;;50.33;47.47;;;;;;;13.05;100.00;100987.72;5057916;28;20181;-76
2022/10/22 07:52:43;;;;;;;48.13;45.83;;;;;;;13.00;100.00;101005.09;5055040;28;20027;-76
2022/10/22 07:55:08;;;;;;;45.78;43.53;;;;;;;12.97;100.00;101004.44;5057054;28;20155;-76
2022/10/22 07:57:35;;;;;;;45.60;43.65;;;;;;;12.91;100.00;101004.25;5055969;28;20078;-77
2022/10/22 08:00:03;;;;;;;48.70;46.03;;;;;;;12.86;100.00;100993.31;5055871;28;20033;-77
2022/10/22 08:02:28;;;;;;;48.85;46.28;;;;;;;12.91;100.00;101010.41;5056825;28;20032;-77
2022/10/22 08:04:55;;;;;;;45.22;43.35;;;;;;;12.90;100.00;101010.53;5057012;28;20579;-76
2022/10/22 08:07:21;;;;;;;49.15;46.67;;;;;;;12.91;100.00;101017.50;5057300;28;20068;-76
2022/10/22 08:09:46;;;;;;;46.85;44.83;;;;;;;12.90;100.00;101021.16;5058092;28;20045;-76
2022/10/22 08:12:12;;;;;;;50.85;48.42;;;;;;;12.92;100.00;101022.63;5058284;28;20553;-77
2022/10/22 08:14:37;;;;;;;47.15;44.80;;;;;;;12.87;100.00;101016.16;5056502;28;20389;-76
2022/10/22 08:17:02;;;;;;;47.08;44.80;;;;;;;12.91;100.00;101026.28;5055436;28;20039;-76
2022/10/22 08:19:30;;;;;;;48.22;45.25;;;;;;;12.95;100.00;101026.78;5056972;28;20626;-76
2022/10/22 08:21:55;;;;;;;53.85;51.08;;;;;;;12.97;100.00;101027.44;5057788;28;20029;-77
2022/10/22 08:24:21;;;;;;;49.55;47.25;;;;;;;13.01;100.00;101026.13;5056709;28;20052;-76
2022/10/22 08:26:46;;;;;;;47.05;45.08;;;;;;;13.03;100.00;101026.81;5057230;28;20112;-77
2022/10/22 08:29:11;;;;;;;47.33;45.15;;;;;;;13.01;100.00;101026.13;5056846;28;20048;-76
2022/10/22 08:31:37;;;;;;;46.25;44.42;;;;;;;13.00;100.00;101015.69;5039980;28;20404;-77
2022/10/22 08:34:04;;;;;;;51.63;49.13;;;;;;;13.02;100.00;101038.41;5039192;28;20103;-76
2022/10/22 08:36:30;;;;;;;45.50;43.40;;;;;;;12.96;100.00;101013.38;5056646;28;20021;-76
2022/10/22 08:38:55;;;;;;;49.25;47.00;;;;;;;12.98;100.00;101013.22;5039181;28;20436;-76
2022/10/22 08:41:23;;;;;;;43.25;41.50;;;;;;;13.17;100.00;101042.09;5040010;28;20962;-76
2022/10/22 08:43:54;;;;;;;45.83;43.97;;;;;;;13.21;100.00;101047.06;5056388;28;20025;-76
2022/10/22 08:46:45;;;;;;;51.75;49.22;;;;;;;13.31;100.00;101043.31;5057797;28;20052;-77
2022/10/22 08:49:22;;;;;;;50.22;47.80;;;;;;;13.35;100.00;101034.03;5057733;28;20019;-77
2022/10/22 08:51:47;;;;;;;49.67;47.47;;;;;;;13.53;100.00;101041.00;5056902;28;20028;-76
2022/10/22 08:54:23;;;;;;;53.05;50.67;;;;;;;14.15;100.00;101051.94;5056262;28;20071;-76
2022/10/22 08:57:12;;;;;;;66.85;63.65;;;;;;;15.42;100.00;101052.75;5063707;28;20028;-76
2022/10/22 08:59:45;;;;;;;60.08;57.58;;;;;;;16.49;100.00;101045.69;5007801;28;20045;-76
2022/10/22 09:02:32;;;;;;;44.15;42.22;;;;;;;17.05;100.00;101038.84;5008062;28;20476;-77
2022/10/22 09:05:27;;;;;;;30.17;28.67;;;;;;;18.22;98.76;101048.31;5007469;28;20052;-77
2022/10/22 09:07:54;;;;;;;21.17;20.25;;;;;;;18.46;94.36;101048.88;5024446;28;20030;-77
2022/10/22 09:10:25;;;;;;;17.67;16.88;;;;;;;18.66;93.95;101049.81;5008319;28;20081;-78
2022/10/22 09:12:50;;;;;;;;;;;;;;;18.91;93.89;101057.34;5008552;28;20112;-77
2022/10/22 09:15:17;;;;;;;10.77;9.80;;;;;;;18.52;94.21;101047.25;5007937;28;20015;-76
2022/10/22 09:17:51;;;;;;;11.00;10.20;;;;;;;18.77;90.10;101056.44;5007169;28;20052;-76
2022/10/22 09:20:31;;;;;;;9.63;8.57;;;;;;;18.56;90.98;101033.31;5007829;28;20044;-76
2022/10/22 09:23:30;;;;;;;7.93;7.13;;;;;;;18.57;90.80;101058.19;5008204;28;20040;-77
2022/10/22 09:25:56;;;;;;;9.18;8.45;;;;;;;19.06;89.94;101067.91;5008007;28;20138;-77
2022/10/22 09:28:22;;;;;;;10.30;9.73;;;;;;;19.69;92.69;101049.72;5007890;28;20109;-77
2022/10/22 09:30:48;;;;;;;8.05;7.22;;;;;;;20.40;82.83;101061.59;5008534;28;20154;-78
2022/10/22 09:33:27;;;;;;;9.52;7.15;;;;;;;21.16;85.92;101068.16;5007682;28;20045;-78
2022/10/22 09:35:54;;;;;;;7.00;6.35;;;;;;;21.66;78.26;101070.97;4998630;28;20037;-77
2022/10/22 09:38:24;;;;;;;8.32;5.85;;;;;;;22.51;76.45;101056.97;5059486;28;20024;-77
2022/10/22 09:40:53;;;;;;;5.43;4.85;;;;;;;21.95;76.02;101064.16;5059335;28;20028;-77
2022/10/22 09:43:18;;;;;;;6.22;5.70;;;;;;;22.55;76.46;101074.31;5058395;28;20024;-77
2022/10/22 09:45:45;;;;;;;4.80;4.35;;;;;;;21.71;76.17;101073.84;5059067;28;20078;-77
2022/10/22 09:48:13;;;;;;;7.43;5.18;;;;;;;19.04;84.10;101080.66;5057584;28;20551;-77
2022/10/22 09:50:45;;;;;;;6.60;5.68;;;;;;;19.27;88.03;101062.41;5059082;28;20497;-76
2022/10/22 09:53:16;;;;;;;7.63;5.47;;;;;;;19.48;86.77;101085.50;5058714;28;20021;-77
2022/10/22 09:55:42;;;;;;;5.72;5.43;;;;;;;19.38;84.96;101073.53;5058212;28;20370;-77
2022/10/22 09:58:11;;;;;;;6.88;6.18;;;;;;;18.22;89.42;101087.56;5057985;28;20434;-77
2022/10/22 10:00:38;;;;;;;8.48;7.88;;;;;;;17.65;93.70;101074.13;5059108;28;20032;-76
2022/10/22 10:03:04;;;;;;;12.35;11.45;;;;;;;18.22;94.22;101063.50;5058023;28;20148;-76
2022/10/22 10:05:32;;;;;;;10.95;10.02;;;;;;;17.40;93.78;101089.69;5041755;28;20124;-77
2022/10/22 10:08:01;;;;;;;12.13;11.43;;;;;;;17.45;97.38;101099.78;5058609;28;20607;-77
2022/10/22 10:10:42;;;;;;;16.45;15.38;;;;;;;17.13;98.97;101101.88;5057155;28;20020;-76
2022/10/22 10:13:37;;;;;;;19.52;18.73;;;;;;;16.88;100.00;101097.91;5057577;28;20063;-76
2022/10/22 10:16:34;;;;;;;23.63;22.50;;;;;;;17.13;100.00;101096.56;5065855;28;20487;-76
2022/10/22 10:19:26;;;;;;;28.08;26.65;;;;;;;17.19;98.77;101094.97;5058764;28;20035;-77
2022/10/22 10:22:00;;;;;;;30.50;29.10;;;;;;;16.76;100.00;101103.63;5059123;28;20499;-77
2022/10/22 10:24:34;;;;;;;29.88;28.50;;;;;;;16.47;100.00;101107.13;5056727;28;20130;-76
2022/10/22 10:27:19;;;;;;;29.75;28.20;;;;;;;16.49;100.00;101107.78;5066508;28;20028;-76
2022/10/22 10:30:00;;;;;;;38.55;36.90;;;;;;;16.25;100.00;101092.88;5056694;28;20051;-77
2022/10/22 10:32:54;;;;;;;34.78;32.70;;;;;;;16.18;100.00;101116.72;5057632;28;20025;-77
2022/10/22 10:35:34;;;;;;;38.88;36.92;;;;;;;15.99;100.00;101112.72;5057947;28;20033;-77
2022/10/22 10:38:11;;;;;;;42.75;40.80;;;;;;;15.83;100.00;101121.69;5058033;28;20029;-76
2022/10/22 10:40:58;;;;;;;41.30;39.35;;;;;;;15.82;100.00;101125.31;5057329;28;20025;-77
2022/10/22 10:43:32;;;;;;;41.83;39.55;;;;;;;15.73;100.00;101125.56;5059680;28;20033;-77
2022/10/22 10:46:18;;;;;;;39.20;37.42;;;;;;;15.51;100.00;101103.25;5058254;28;20052;-77
2022/10/22 10:48:56;;;;;;;44.00;42.33;;;;;;;15.60;100.00;101134.09;5059769;28;20047;-77
2022/10/22 10:51:52;;;;;;;51.88;49.40;;;;;;;15.55;100.00;101123.19;5059761;28;20097;-76
2022/10/22 10:55:01;;;;;;;53.45;51.25;;;;;;;15.72;100.00;101131.88;5058532;28;20037;-76
2022/10/22 10:57:55;;;;;;;40.97;39.33;;;;;;;15.85;100.00;101132.13;5008857;28;20033;-77
2022/10/22 11:00:21;;;;;;;46.65;44.63;;;;;;;15.82;100.00;101135.16;5007002;28;20076;-75
2022/10/22 11:03:08;;;;;;;46.13;44.13;;;;;;;15.91;100.00;101138.59;5004836;28;20057;-76
2022/10/22 11:05:45;;;;;;;43.55;41.80;;;;;;;15.99;100.00;101141.19;5005180;28;20049;-76
2022/10/22 11:08:24;;;;;;;47.13;45.35;;;;;;;15.75;100.00;101132.38;5004723;28;20132;-76
2022/10/22 11:11:15;;;;;;;48.25;46.33;;;;;;;15.73;100.00;101139.69;4988427;28;20083;-76
2022/10/22 11:13:58;;;;;;;48.08;46.13;;;;;;;15.76;100.00;101138.50;5005509;28;20049;-76
2022/10/22 11:16:34;;;;;;;52.47;50.33;;;;;;;15.62;100.00;101140.91;5005669;28;20910;-76